createdAt,value
2019-01-21T00:00:47.394Z,26.83
2019-01-21T00:03:16.886Z,25.23
2019-01-21T00:05:48.835Z,25.03
2019-01-21T00:08:19.533Z,25.37
2019-01-21T00:10:50.554Z,25.00
2019-01-21T00:13:19.731Z,24.03
2019-01-21T00:15:48.999Z,26.70
2019-01-21T00:18:18.328Z,27.73
2019-01-21T00:20:47.773Z,27.07
2019-01-21T00:23:17.001Z,26.50
2019-01-21T00:25:46.021Z,26.57
2019-01-21T00:28:15.463Z,26.90
2019-01-21T00:30:44.522Z,27.43
2019-01-21T00:33:13.722Z,28.87
2019-01-21T00:35:42.837Z,27.30
2019-01-21T00:38:12.435Z,27.40
2019-01-21T00:40:42.754Z,27.70
2019-01-21T00:43:11.896Z,25.13
2019-01-21T00:45:41.447Z,27.67
2019-01-21T00:48:10.493Z,27.43
2019-01-21T00:50:39.888Z,28.70
2019-01-21T00:53:09.231Z,28.43
2019-01-21T00:55:39.161Z,27.03
2019-01-21T00:58:08.275Z,27.17
2019-01-21T01:00:37.543Z,27.13
2019-01-21T01:03:06.783Z,28.93
2019-01-21T01:05:36.493Z,28.50
2019-01-21T01:08:06.315Z,27.23
2019-01-21T01:10:35.532Z,27.47
2019-01-21T01:13:04.619Z,27.10
2019-01-21T01:15:33.926Z,27.93
2019-01-21T01:18:02.858Z,30.67
2019-01-21T01:20:31.769Z,28.30
2019-01-21T01:23:00.873Z,27.73
2019-01-21T01:25:30.033Z,26.43
2019-01-21T01:27:59.224Z,27.17
2019-01-21T01:30:28.393Z,27.77
2019-01-21T01:32:57.706Z,27.03
2019-01-21T01:35:26.841Z,28.73
2019-01-21T01:37:56.398Z,27.70
2019-01-21T01:40:25.753Z,28.63
2019-01-21T01:42:56.697Z,28.67
2019-01-21T01:45:29.605Z,26.83
2019-01-21T01:48:03.033Z,26.40
2019-01-21T01:50:32.649Z,27.80
2019-01-21T01:53:01.889Z,27.30
2019-01-21T01:55:32.222Z,29.83
2019-01-21T01:58:03.310Z,28.17
2019-01-21T02:00:32.785Z,28.33
2019-01-21T02:03:01.820Z,29.70
2019-01-21T02:05:31.655Z,28.63
2019-01-21T02:08:02.039Z,28.37
2019-01-21T02:10:31.593Z,27.47
2019-01-21T02:13:01.076Z,30.10
2019-01-21T02:15:31.847Z,28.03
2019-01-21T02:18:00.920Z,28.53
2019-01-21T02:20:29.913Z,29.03
2019-01-21T02:23:04.817Z,27.87
2019-01-21T02:26:09.763Z,27.47
2019-01-21T02:29:27.749Z,27.23
2019-01-21T02:32:46.849Z,28.07
2019-01-21T02:35:24.402Z,24.80
2019-01-21T02:38:30.776Z,27.47
2019-01-21T02:41:22.569Z,27.33
2019-01-21T02:44:38.098Z,27.63
2019-01-21T02:47:31.965Z,26.07
2019-01-21T02:50:57.522Z,25.57
2019-01-21T02:53:41.791Z,23.30
2019-01-21T02:56:36.521Z,26.60
2019-01-21T02:59:27.462Z,27.07
2019-01-21T03:02:37.911Z,26.63
2019-01-21T03:05:58.126Z,26.23
2019-01-21T03:09:13.999Z,26.30
2019-01-21T03:12:27.166Z,27.70
2019-01-21T03:15:14.646Z,26.73
2019-01-21T03:18:24.924Z,25.87
2019-01-21T03:21:17.327Z,27.00
2019-01-21T03:24:22.585Z,27.37
2019-01-21T03:27:25.250Z,25.80
2019-01-21T03:30:21.470Z,26.17
2019-01-21T03:33:46.739Z,27.60
2019-01-21T03:36:51.435Z,24.40
2019-01-21T03:40:16.006Z,25.87
2019-01-21T03:43:27.946Z,25.73
2019-01-21T03:46:56.517Z,25.83
2019-01-21T03:49:36.378Z,27.10
2019-01-21T03:52:48.704Z,27.80
2019-01-21T03:55:19.098Z,27.93
2019-01-21T03:58:32.518Z,26.13
2019-01-21T04:01:18.174Z,24.77
2019-01-21T04:04:47.355Z,26.77
2019-01-21T04:08:07.933Z,27.03
2019-01-21T04:11:09.526Z,26.00
2019-01-21T04:14:15.549Z,27.13
2019-01-21T04:17:42.641Z,26.93
2019-01-21T04:21:14.161Z,26.80
2019-01-21T04:24:04.789Z,26.17
2019-01-21T04:26:54.752Z,26.60
2019-01-21T04:29:45.382Z,26.23
2019-01-21T04:32:26.558Z,24.80
2019-01-21T04:35:14.474Z,27.87
2019-01-21T04:38:27.650Z,27.10
2019-01-21T04:41:23.358Z,27.67
2019-01-21T04:44:26.543Z,26.67
2019-01-21T04:47:35.751Z,28.87
2019-01-21T04:50:33.588Z,25.20
2019-01-21T04:53:26.707Z,26.13
2019-01-21T04:56:33.104Z,25.77
2019-01-21T04:59:55.816Z,26.37
2019-01-21T05:03:03.171Z,25.30
2019-01-21T05:06:05.808Z,26.93
2019-01-21T05:09:12.430Z,26.37
2019-01-21T05:12:14.381Z,26.30
2019-01-21T05:15:29.239Z,27.10
2019-01-21T05:18:32.206Z,29.37
2019-01-21T05:21:24.634Z,30.33
2019-01-21T05:24:22.744Z,30.23
2019-01-21T05:27:22.261Z,33.40
2019-01-21T05:30:12.397Z,28.43
2019-01-21T05:33:25.769Z,27.57
2019-01-21T05:36:09.846Z,27.40
2019-01-21T05:39:15.194Z,25.53
2019-01-21T05:42:17.368Z,30.37
2019-01-21T05:45:17.699Z,29.57
2019-01-21T05:48:15.400Z,27.63
2019-01-21T05:51:32.808Z,26.60
2019-01-21T05:54:57.298Z,25.57
2019-01-21T05:58:00.008Z,29.67
2019-01-21T06:00:53.828Z,26.87
2019-01-21T06:03:37.246Z,27.50
2019-01-21T06:07:01.873Z,29.23
2019-01-21T06:10:11.075Z,27.73
2019-01-21T06:13:16.365Z,28.10
2019-01-21T06:16:11.131Z,26.93
2019-01-21T06:19:28.338Z,26.43
2019-01-21T06:22:38.756Z,27.13
2019-01-21T06:25:45.950Z,28.97
2019-01-21T06:28:56.431Z,26.67
2019-01-21T06:32:03.095Z,26.97
2019-01-21T06:35:19.142Z,29.00
2019-01-21T06:38:15.290Z,28.70
2019-01-21T06:41:09.317Z,29.27
2019-01-21T06:44:15.741Z,28.80
2019-01-21T06:47:07.848Z,29.53
2019-01-21T06:50:00.931Z,28.13
2019-01-21T06:53:11.024Z,30.27
2019-01-21T06:56:14.782Z,28.77
2019-01-21T06:59:49.434Z,29.63
2019-01-21T07:02:44.984Z,30.00
2019-01-21T07:05:44.443Z,29.60
2019-01-21T07:08:57.261Z,29.27
2019-01-21T07:11:53.529Z,27.73
2019-01-21T07:15:03.373Z,26.87
2019-01-21T07:18:11.893Z,28.07
2019-01-21T07:21:32.757Z,27.10
2019-01-21T07:24:44.359Z,27.53
2019-01-21T07:27:38.346Z,26.37
2019-01-21T07:30:48.227Z,27.33
2019-01-21T07:34:07.178Z,28.73
2019-01-21T07:37:11.215Z,27.70
2019-01-21T07:39:55.218Z,26.80
2019-01-21T07:43:14.385Z,29.57
2019-01-21T07:46:11.137Z,28.63
2019-01-21T07:49:04.470Z,31.90
2019-01-21T07:52:17.701Z,29.87
2019-01-21T07:55:04.445Z,29.83
2019-01-21T07:58:26.158Z,31.93
2019-01-21T08:01:10.256Z,29.77
2019-01-21T08:04:03.506Z,29.37
2019-01-21T08:06:50.630Z,30.73
2019-01-21T08:09:48.329Z,27.43
2019-01-21T08:13:04.003Z,29.60
2019-01-21T08:16:14.975Z,28.23
2019-01-21T08:19:03.485Z,27.77
2019-01-21T08:22:23.827Z,29.73
2019-01-21T08:25:33.588Z,27.60
2019-01-21T08:28:29.129Z,27.90
2019-01-21T08:31:50.454Z,30.93
2019-01-21T08:35:03.137Z,30.23
2019-01-21T08:38:23.094Z,28.40
2019-01-21T08:41:51.650Z,27.17
2019-01-21T08:44:52.269Z,26.17
2019-01-21T08:47:48.028Z,26.50
2019-01-21T08:50:52.435Z,26.87
2019-01-21T08:54:08.594Z,29.07
2019-01-21T08:57:09.764Z,27.47
2019-01-21T09:00:00.210Z,25.93
2019-01-21T09:03:07.769Z,27.17
2019-01-21T09:06:02.505Z,28.20
2019-01-21T09:09:15.239Z,28.40
2019-01-21T09:12:19.679Z,27.40
2019-01-21T09:14:59.017Z,29.03
2019-01-21T09:17:56.786Z,28.97
2019-01-21T09:21:06.122Z,27.23
2019-01-21T09:24:15.967Z,27.57
2019-01-21T09:27:24.081Z,27.30
2019-01-21T09:30:45.686Z,26.40
2019-01-21T09:33:55.389Z,26.60
2019-01-21T09:36:46.016Z,26.97
2019-01-21T09:39:31.744Z,26.20
2019-01-21T09:42:16.497Z,27.90
2019-01-21T09:45:08.941Z,26.20
2019-01-21T09:47:36.601Z,26.33
2019-01-21T09:50:06.694Z,26.13
2019-01-21T09:52:36.453Z,26.47
2019-01-21T09:55:06.666Z,26.87
2019-01-21T09:57:38.237Z,27.40
2019-01-21T10:00:13.769Z,26.30
2019-01-21T10:02:46.162Z,26.77
2019-01-21T10:05:17.071Z,26.47
2019-01-21T10:08:05.674Z,24.60
2019-01-21T10:11:04.465Z,24.93
2019-01-21T10:14:08.219Z,26.50
2019-01-21T10:17:08.881Z,24.77
2019-01-21T10:20:10.742Z,26.77
2019-01-21T10:23:01.087Z,27.83
2019-01-21T10:26:06.194Z,26.33
2019-01-21T10:29:25.645Z,26.70
2019-01-21T10:32:19.329Z,26.13
2019-01-21T10:35:13.899Z,26.37
2019-01-21T10:38:33.069Z,26.37
2019-01-21T10:41:10.320Z,25.20
2019-01-21T10:44:12.993Z,26.90
2019-01-21T10:47:11.098Z,25.57
2019-01-21T10:50:12.211Z,26.30
2019-01-21T10:53:25.714Z,27.07
2019-01-21T10:56:32.120Z,24.77
2019-01-21T10:59:29.949Z,26.03
2019-01-21T11:02:21.250Z,25.90
2019-01-21T11:05:16.001Z,24.37
2019-01-21T11:08:21.486Z,26.50
2019-01-21T11:10:59.975Z,27.17
2019-01-21T11:14:12.471Z,25.73
2019-01-21T11:17:12.919Z,25.33
2019-01-21T11:20:14.927Z,25.60
2019-01-21T11:22:57.177Z,25.77
2019-01-21T11:26:22.398Z,26.10
2019-01-21T11:29:17.971Z,23.33
2019-01-21T11:32:11.189Z,23.83
2019-01-21T11:35:15.827Z,24.10
2019-01-21T11:38:03.834Z,24.33
2019-01-21T11:41:04.674Z,26.77
2019-01-21T11:44:14.376Z,24.40
2019-01-21T11:47:27.773Z,25.23
2019-01-21T11:50:39.614Z,27.47
2019-01-21T11:53:31.696Z,26.33
2019-01-21T11:56:31.919Z,25.27
2019-01-21T11:59:09.234Z,25.80
2019-01-21T12:02:03.740Z,25.30
2019-01-21T12:05:25.158Z,26.10
2019-01-21T12:08:38.130Z,25.63
2019-01-21T12:11:47.562Z,25.27
2019-01-21T12:14:55.302Z,24.13
2019-01-21T12:18:26.737Z,26.03
2019-01-21T12:21:15.026Z,25.93
2019-01-21T12:24:12.634Z,25.30
2019-01-21T12:26:56.293Z,25.30
2019-01-21T12:30:11.577Z,26.57
2019-01-21T12:33:06.884Z,25.00
2019-01-21T12:35:45.318Z,27.27
2019-01-21T12:38:43.325Z,27.63
2019-01-21T12:41:34.589Z,24.60
2019-01-21T12:44:56.698Z,26.30
2019-01-21T12:47:41.781Z,27.23
2019-01-21T12:50:54.387Z,25.67
2019-01-21T12:53:57.102Z,25.07
2019-01-21T12:56:53.313Z,26.00
2019-01-21T13:00:06.212Z,24.70
2019-01-21T13:03:19.613Z,27.17
2019-01-21T13:06:19.758Z,27.73
2019-01-21T13:09:15.168Z,26.93
2019-01-21T13:12:16.746Z,26.00
2019-01-21T13:15:21.924Z,26.83
2019-01-21T13:18:44.281Z,23.73
2019-01-21T13:21:52.939Z,27.00
2019-01-21T13:24:47.861Z,28.43
2019-01-21T13:27:45.721Z,25.70
2019-01-21T13:30:38.510Z,24.00
2019-01-21T13:33:38.030Z,26.37
2019-01-21T13:36:25.978Z,26.20
2019-01-21T13:39:32.456Z,23.13
2019-01-21T13:42:12.953Z,26.40
2019-01-21T13:45:28.421Z,23.77
2019-01-21T13:48:54.822Z,22.47
2019-01-21T13:52:04.765Z,22.73
2019-01-21T13:54:48.643Z,21.37
2019-01-21T13:57:39.082Z,23.10
2019-01-21T14:01:00.597Z,23.50
2019-01-21T14:04:07.185Z,21.50
2019-01-21T14:07:03.862Z,23.30
2019-01-21T14:09:53.346Z,21.10
2019-01-21T14:12:43.770Z,21.93
2019-01-21T14:15:39.722Z,21.47
2019-01-21T14:18:43.132Z,21.60
2019-01-21T14:21:43.132Z,22.07
2019-01-21T14:24:36.425Z,20.93
2019-01-21T14:27:38.387Z,22.63
2019-01-21T14:30:32.693Z,23.07
2019-01-21T14:33:40.093Z,21.00
2019-01-21T14:36:39.386Z,22.47
2019-01-21T14:39:31.601Z,21.40
2019-01-21T14:42:28.770Z,21.03
2019-01-21T14:45:35.550Z,20.27
2019-01-21T14:48:44.993Z,21.60
2019-01-21T14:51:50.100Z,20.47
2019-01-21T14:54:54.329Z,21.47
2019-01-21T14:57:56.105Z,21.53
2019-01-21T15:01:03.138Z,22.63
2019-01-21T15:03:55.853Z,20.37
2019-01-21T15:07:04.178Z,21.27
2019-01-21T15:10:29.223Z,20.60
2019-01-21T15:13:10.768Z,25.53
2019-01-21T15:16:03.391Z,21.60
2019-01-21T15:18:42.410Z,20.83
2019-01-21T15:21:24.645Z,20.03
2019-01-21T15:24:21.108Z,20.93
2019-01-21T15:27:00.990Z,20.80
2019-01-21T15:30:20.308Z,21.43
2019-01-21T15:33:34.871Z,19.77
2019-01-21T15:36:45.106Z,20.27
2019-01-21T15:39:26.829Z,20.20
2019-01-21T15:42:26.116Z,20.63
2019-01-21T15:45:17.650Z,19.67
2019-01-21T15:48:23.938Z,22.13
2019-01-21T15:51:04.868Z,19.90
2019-01-21T15:54:16.277Z,21.57
2019-01-21T15:57:47.650Z,21.10
2019-01-21T16:01:12.827Z,21.03
2019-01-21T16:03:55.891Z,21.87
2019-01-21T16:06:43.332Z,20.83
2019-01-21T16:09:36.871Z,21.63
2019-01-21T16:12:21.624Z,20.60
2019-01-21T16:15:16.660Z,21.30
2019-01-21T16:17:54.515Z,22.67
2019-01-21T16:20:51.422Z,57.43
2019-01-21T16:23:56.647Z,22.60
2019-01-21T16:26:49.632Z,20.47
2019-01-21T16:29:56.239Z,20.70
2019-01-21T16:32:45.329Z,20.03
2019-01-21T16:35:55.711Z,20.80
2019-01-21T16:38:49.057Z,20.33
2019-01-21T16:41:41.886Z,21.27
2019-01-21T16:44:11.147Z,20.33
2019-01-21T16:46:40.189Z,20.37
2019-01-21T16:49:09.078Z,20.03
2019-01-21T16:51:38.077Z,19.63
2019-01-21T16:54:07.756Z,20.17
2019-01-21T16:57:04.789Z,18.90
2019-01-21T16:59:34.010Z,20.00
2019-01-21T17:02:03.212Z,22.43
2019-01-21T17:04:32.824Z,20.87
2019-01-21T17:07:03.779Z,20.93
2019-01-21T17:09:32.945Z,20.10
2019-01-21T17:12:02.191Z,21.17
2019-01-21T17:14:32.074Z,19.67
2019-01-21T17:17:02.121Z,22.20
2019-01-21T17:19:31.485Z,21.10
2019-01-21T17:22:00.911Z,21.67
2019-01-21T17:24:30.202Z,20.53
2019-01-21T17:26:59.320Z,21.60
2019-01-21T17:29:28.537Z,22.00
2019-01-21T17:31:57.523Z,20.50
2019-01-21T17:34:26.723Z,21.20
2019-01-21T17:36:56.606Z,21.37
2019-01-21T17:39:25.811Z,20.60
2019-01-21T17:41:55.145Z,25.13
2019-01-21T17:44:24.356Z,21.33
2019-01-21T17:46:54.339Z,21.73
2019-01-21T17:49:25.098Z,20.97
2019-01-21T17:51:54.154Z,26.27
2019-01-21T17:54:23.229Z,20.43
2019-01-21T17:56:52.709Z,20.27
2019-01-21T17:59:24.202Z,21.60
2019-01-21T18:01:53.445Z,18.90
2019-01-21T18:04:22.438Z,18.70
2019-01-21T18:06:51.397Z,18.80
2019-01-21T18:09:20.592Z,18.17
2019-01-21T18:11:49.864Z,17.57
2019-01-21T18:14:19.385Z,17.17
2019-01-21T18:16:48.361Z,16.93
2019-01-21T18:19:17.825Z,19.03
2019-01-21T18:21:47.043Z,19.17
2019-01-21T18:24:16.751Z,18.90
2019-01-21T18:26:45.909Z,19.03
2019-01-21T18:29:15.128Z,18.80
2019-01-21T18:31:44.366Z,18.97
2019-01-21T18:34:13.617Z,17.77
2019-01-21T18:36:42.964Z,20.43
2019-01-21T18:39:13.506Z,18.90
2019-01-21T18:41:43.022Z,18.07
2019-01-21T18:44:12.438Z,19.87
2019-01-21T18:46:42.973Z,20.07
2019-01-21T18:49:12.255Z,19.23
2019-01-21T18:51:46.650Z,20.00
2019-01-21T18:54:13.804Z,19.60
2019-01-21T18:56:42.908Z,19.83
2019-01-21T18:59:12.210Z,18.97
2019-01-21T19:01:41.397Z,20.13
2019-01-21T19:04:10.572Z,17.97
2019-01-21T19:06:39.718Z,20.07
2019-01-21T19:09:09.601Z,19.13
2019-01-21T19:11:38.761Z,19.17
2019-01-21T19:14:07.845Z,19.77
2019-01-21T19:16:37.565Z,19.60
2019-01-21T19:19:07.281Z,16.70
2019-01-21T19:21:36.539Z,19.93
2019-01-21T19:24:06.691Z,18.63
2019-01-21T19:26:36.093Z,17.90
2019-01-21T19:29:05.091Z,17.33
2019-01-21T19:31:34.349Z,16.00
2019-01-21T19:34:03.994Z,14.10
2019-01-21T19:36:33.241Z,14.93
2019-01-21T19:39:02.390Z,13.53
2019-01-21T19:41:31.583Z,14.03
2019-01-21T19:44:00.706Z,15.00
2019-01-21T19:46:30.306Z,15.07
2019-01-21T19:49:00.017Z,16.30
2019-01-21T19:51:29.274Z,15.33
2019-01-21T19:53:58.877Z,14.73
2019-01-21T19:56:28.435Z,14.70
2019-01-21T19:58:57.377Z,14.33
2019-01-21T20:01:26.617Z,16.80
2019-01-21T20:03:56.392Z,12.43
2019-01-21T20:06:26.203Z,12.23
2019-01-21T20:08:56.005Z,13.20
2019-01-21T20:11:25.209Z,13.43
2019-01-21T20:13:55.543Z,13.50
2019-01-21T20:16:24.633Z,13.53
2019-01-21T20:18:53.857Z,12.93
2019-01-21T20:21:23.094Z,11.57
2019-01-21T20:23:52.499Z,13.23
2019-01-21T20:26:21.582Z,13.43
2019-01-21T20:28:51.200Z,14.27
2019-01-21T20:31:20.128Z,10.90
2019-01-21T20:33:52.256Z,12.93
2019-01-21T20:36:22.599Z,12.63
2019-01-21T20:38:53.810Z,12.93
2019-01-21T20:41:23.043Z,12.33
2019-01-21T20:43:52.238Z,13.33
2019-01-21T20:46:21.706Z,12.67
2019-01-21T20:48:53.087Z,15.10
2019-01-21T20:51:22.309Z,13.23
2019-01-21T20:53:53.638Z,13.23
2019-01-21T20:56:22.964Z,11.43
2019-01-21T20:58:53.248Z,14.93
2019-01-21T21:01:22.487Z,14.33
2019-01-21T21:03:51.698Z,13.57
2019-01-21T21:06:21.501Z,11.90
2019-01-21T21:08:50.898Z,11.43
2019-01-21T21:11:22.048Z,12.00
2019-01-21T21:13:52.139Z,12.50
2019-01-21T21:16:21.779Z,13.33
2019-01-21T21:18:50.930Z,14.83
2019-01-21T21:21:21.741Z,15.23
2019-01-21T21:23:52.945Z,15.93
2019-01-21T21:26:21.949Z,14.27
2019-01-21T21:28:51.718Z,13.97
2019-01-21T21:31:20.925Z,14.13
2019-01-21T21:33:51.793Z,17.00
2019-01-21T21:36:21.713Z,15.37
2019-01-21T21:38:51.105Z,15.50
2019-01-21T21:41:20.341Z,14.53
2019-01-21T21:43:50.299Z,14.33
2019-01-21T21:46:20.146Z,14.77
2019-01-21T21:48:50.405Z,14.70
2019-01-21T21:51:21.015Z,15.00
2019-01-21T21:53:50.074Z,15.43
2019-01-21T21:56:19.908Z,15.67
2019-01-21T21:58:52.701Z,15.60
2019-01-21T22:01:24.384Z,15.93
2019-01-21T22:03:52.821Z,13.67
2019-01-21T22:06:24.042Z,14.33
2019-01-21T22:08:53.466Z,14.87
2019-01-21T22:11:22.874Z,14.07
2019-01-21T22:13:52.334Z,15.40
2019-01-21T22:16:21.445Z,12.57
2019-01-21T22:18:51.531Z,14.80
2019-01-21T22:21:20.929Z,15.47
2019-01-21T22:23:50.171Z,14.77
2019-01-21T22:26:19.313Z,15.23
2019-01-21T22:28:49.307Z,16.13
2019-01-21T22:31:19.804Z,12.43
2019-01-21T22:33:49.043Z,13.17
2019-01-21T22:36:18.516Z,11.73
2019-01-21T22:38:48.410Z,11.97
2019-01-21T22:41:17.887Z,13.07
2019-01-21T22:43:48.616Z,11.57
2019-01-21T22:46:17.691Z,12.40
2019-01-21T22:48:48.749Z,12.03
2019-01-21T22:51:17.881Z,12.70
2019-01-21T22:53:47.685Z,12.00
2019-01-21T22:56:17.295Z,11.27
2019-01-21T22:58:47.239Z,14.03
2019-01-21T23:01:31.520Z,13.80
2019-01-21T23:04:01.094Z,11.13
2019-01-21T23:06:30.461Z,11.67
2019-01-21T23:09:00.241Z,12.70
2019-01-21T23:11:30.066Z,11.30
2019-01-21T23:13:59.099Z,11.10
2019-01-21T23:16:28.598Z,10.23
2019-01-21T23:18:59.161Z,10.97
2019-01-21T23:21:28.380Z,10.40
2019-01-21T23:23:57.990Z,11.50
2019-01-21T23:26:27.705Z,11.20
2019-01-21T23:28:57.382Z,9.87
2019-01-21T23:31:28.439Z,10.93
2019-01-21T23:33:57.495Z,10.97
2019-01-21T23:36:27.848Z,11.43
2019-01-21T23:38:57.493Z,12.00
2019-01-21T23:41:26.829Z,11.07
2019-01-21T23:43:56.263Z,10.60
2019-01-21T23:46:27.122Z,10.17
2019-01-21T23:48:56.625Z,11.67
2019-01-21T23:51:25.985Z,11.20
2019-01-21T23:53:55.291Z,12.03
2019-01-21T23:56:26.586Z,10.63
2019-01-21T23:58:56.018Z,12.63
